Time;durP1;ratioP1;P1;durP2;ratioP2;P2;SDS_P1;SDS_P2;PMS_P1;PMS_P2;Temp;Humidity;BMP_temperature;BMP_pressure;BME280_temperature;BME280_humidity;BME280_pressure;Samples;Min_cycle;Max_cycle;Signal;HPM_P1;HPM_P2
2023/09/22 00:00:55;;;;;;;0.10;0.10;;;13.30;99.90;;;;;;5073858;28;20032;-67
2023/09/22 00:03:21;;;;;;;0.20;0.20;;;13.30;99.90;;;;;;5076591;28;20028;-66
2023/09/22 00:05:47;;;;;;;0.45;0.30;;;13.30;99.90;;;;;;5101464;28;20068;-66
2023/09/22 00:08:12;;;;;;;0.15;0.15;;;13.30;99.90;;;;;;5073179;28;20025;-67
2023/09/22 00:10:38;;;;;;;0.47;0.45;;;13.30;99.90;;;;;;5092909;28;20035;-66
2023/09/22 00:13:04;;;;;;;1.25;1.00;;;13.40;99.90;;;;;;5101969;28;20024;-66
2023/09/22 00:15:30;;;;;;;1.77;0.85;;;13.40;99.90;;;;;;5090768;28;20035;-66
2023/09/22 00:17:55;;;;;;;0.47;0.47;;;13.40;99.90;;;;;;5114367;28;20027;-66
2023/09/22 00:20:22;;;;;;;2.53;0.45;;;13.50;99.90;;;;;;5100383;28;20114;-66
2023/09/22 00:22:47;;;;;;;0.22;0.22;;;13.50;99.90;;;;;;5093632;28;20031;-67
2023/09/22 00:25:13;;;;;;;0.80;0.65;;;13.50;99.90;;;;;;5092376;28;20041;-67
2023/09/22 00:27:39;;;;;;;0.60;0.45;;;13.50;99.90;;;;;;5093711;28;20068;-67
2023/09/22 00:30:05;;;;;;;0.40;0.40;;;13.60;99.90;;;;;;5114055;28;20020;-67
2023/09/22 00:32:31;;;;;;;0.60;0.60;;;13.70;99.90;;;;;;5113458;28;20110;-67
2023/09/22 00:34:57;;;;;;;0.55;0.50;;;13.70;99.90;;;;;;5113789;28;20059;-67
2023/09/22 00:37:23;;;;;;;0.47;0.43;;;13.70;99.90;;;;;;5094775;28;20115;-67
2023/09/22 00:39:49;;;;;;;0.10;0.10;;;13.70;99.90;;;;;;5089080;28;20024;-67
2023/09/22 00:42:14;;;;;;;0.50;0.50;;;13.70;99.90;;;;;;5092145;28;20024;-67
2023/09/22 00:44:40;;;;;;;1.30;0.57;;;13.70;99.90;;;;;;5093369;28;20016;-68
2023/09/22 00:47:07;;;;;;;0.65;0.65;;;13.80;99.90;;;;;;5093085;28;20032;-66
2023/09/22 00:49:35;;;;;;;1.35;0.70;;;13.70;99.90;;;;;;5093110;28;20048;-67
2023/09/22 00:52:02;;;;;;;3.67;1.08;;;13.80;99.90;;;;;;5092960;28;20107;-68
2023/09/22 00:54:29;;;;;;;0.28;0.28;;;13.80;99.90;;;;;;5093014;28;20035;-68
2023/09/22 00:56:55;;;;;;;0.20;0.20;;;13.80;99.90;;;;;;5092545;28;20132;-68
2023/09/22 00:59:21;;;;;;;1.75;1.10;;;13.90;99.90;;;;;;5092847;28;20107;-68
2023/09/22 01:01:47;;;;;;;1.02;0.90;;;13.80;99.90;;;;;;5089836;28;20119;-67
2023/09/22 01:04:13;;;;;;;2.95;0.90;;;13.80;99.90;;;;;;5092249;28;20055;-68
2023/09/22 01:06:39;;;;;;;0.47;0.47;;;13.80;99.90;;;;;;5091809;28;20023;-68
2023/09/22 01:09:09;;;;;;;0.50;0.50;;;13.80;99.90;;;;;;5085784;28;20059;-69
2023/09/22 01:11:35;;;;;;;1.05;0.85;;;13.80;99.90;;;;;;5092594;28;20024;-67
2023/09/22 01:14:02;;;;;;;0.88;0.88;;;13.80;99.90;;;;;;5094278;28;20021;-69
2023/09/22 01:16:29;;;;;;;2.15;1.13;;;13.70;99.90;;;;;;5093198;28;20070;-68
2023/09/22 01:18:56;;;;;;;0.98;0.93;;;13.70;99.90;;;;;;5092705;28;20024;-67
2023/09/22 01:21:34;;;;;;;1.05;0.75;;;13.60;99.90;;;;;;5091739;28;20119;-67
2023/09/22 01:23:59;;;;;;;1.75;1.02;;;13.60;99.90;;;;;;5093173;28;20160;-68
2023/09/22 01:26:25;;;;;;;4.07;2.47;;;13.60;99.90;;;;;;5092243;28;20456;-67
2023/09/22 01:28:50;;;;;;;0.73;0.73;;;13.50;99.90;;;;;;5092048;28;20032;-68
2023/09/22 01:31:16;;;;;;;1.58;1.15;;;13.50;99.90;;;;;;5092132;28;20020;-68
2023/09/22 01:33:42;;;;;;;1.83;1.73;;;13.40;99.90;;;;;;5092119;28;20111;-68
2023/09/22 01:36:08;;;;;;;1.65;1.35;;;13.40;99.90;;;;;;5092483;28;20059;-68
2023/09/22 01:38:33;;;;;;;4.95;2.05;;;13.40;99.90;;;;;;5091803;28;20089;-67
2023/09/22 01:40:59;;;;;;;2.25;0.73;;;13.30;99.90;;;;;;5091947;28;20024;-67
2023/09/22 01:43:24;;;;;;;2.08;1.75;;;13.40;99.90;;;;;;5091796;28;20085;-68
2023/09/22 01:45:50;;;;;;;1.77;1.65;;;13.40;99.90;;;;;;5095711;28;20030;-67
2023/09/22 01:48:16;;;;;;;3.30;2.00;;;13.30;99.90;;;;;;5095885;28;20031;-67
2023/09/22 01:50:42;;;;;;;2.08;1.63;;;13.30;99.90;;;;;;5095788;28;20047;-67
2023/09/22 01:53:10;;;;;;;2.22;1.45;;;13.40;99.90;;;;;;5095911;28;20492;-67
2023/09/22 01:55:40;;;;;;;8.10;2.70;;;13.30;99.90;;;;;;5095227;28;20085;-67
2023/09/22 01:58:10;;;;;;;6.85;3.65;;;13.40;99.90;;;;;;5096188;28;20024;-67
2023/09/22 02:00:36;;;;;;;4.78;2.63;;;13.40;99.90;;;;;;5095559;28;20391;-68
2023/09/22 02:03:02;;;;;;;1.55;1.10;;;13.40;99.90;;;;;;5095690;28;20115;-67
2023/09/22 02:05:29;;;;;;;10.98;4.20;;;13.40;99.90;;;;;;5095999;28;20077;-67
2023/09/22 02:07:55;;;;;;;7.60;3.33;;;13.40;99.90;;;;;;5095792;28;20509;-66
2023/09/22 02:10:21;;;;;;;5.72;3.40;;;13.40;99.90;;;;;;5095824;28;20031;-68
2023/09/22 02:12:47;;;;;;;5.70;4.13;;;13.50;99.90;;;;;;5095037;28;20016;-68
2023/09/22 02:15:13;;;;;;;10.38;5.57;;;13.50;99.90;;;;;;5096040;28;20043;-68
2023/09/22 02:17:41;;;;;;;5.07;3.35;;;13.50;99.90;;;;;;5097754;28;20039;-68
2023/09/22 02:20:26;;;;;;;5.22;3.92;;;13.50;99.90;;;;;;5091711;28;20032;-68
2023/09/22 02:22:56;;;;;;;7.00;3.20;;;13.50;99.90;;;;;;5092823;28;20126;-67
2023/09/22 02:25:23;;;;;;;6.72;4.68;;;13.50;99.90;;;;;;5093794;28;20024;-68
2023/09/22 02:27:50;;;;;;;11.88;6.07;;;13.50;99.90;;;;;;5091754;28;20053;-67
2023/09/22 02:30:18;;;;;;;7.50;3.95;;;13.50;99.90;;;;;;5094930;28;20020;-67
2023/09/22 02:32:48;;;;;;;5.20;4.35;;;13.50;99.90;;;;;;5095114;28;20020;-67
2023/09/22 02:35:14;;;;;;;5.63;3.15;;;13.50;99.90;;;;;;5092489;28;20044;-67
2023/09/22 02:37:40;;;;;;;7.97;4.22;;;13.60;99.90;;;;;;5095449;28;20514;-67
2023/09/22 02:40:07;;;;;;;8.13;4.38;;;13.50;99.90;;;;;;5088276;28;20024;-68
2023/09/22 02:42:33;;;;;;;9.20;4.60;;;13.50;99.90;;;;;;5094595;28;20048;-67
2023/09/22 02:44:59;;;;;;;3.38;2.40;;;13.60;99.90;;;;;;5094888;28;20430;-67
2023/09/22 02:47:27;;;;;;;11.70;4.72;;;13.60;99.90;;;;;;5094750;28;20426;-68
2023/09/22 02:49:53;;;;;;;2.22;1.95;;;13.60;99.90;;;;;;5083586;28;20488;-69
2023/09/22 02:52:18;;;;;;;9.00;4.97;;;13.60;99.90;;;;;;5088161;28;20102;-67
2023/09/22 02:54:44;;;;;;;17.77;5.78;;;13.60;99.90;;;;;;5077384;28;20028;-67
2023/09/22 02:57:09;;;;;;;8.23;4.72;;;13.60;99.90;;;;;;5074835;28;20102;-67
2023/09/22 02:59:35;;;;;;;8.00;4.35;;;13.60;99.90;;;;;;5074844;28;20029;-67
2023/09/22 03:02:00;;;;;;;9.63;2.88;;;13.50;99.90;;;;;;5080924;28;20452;-67
2023/09/22 03:04:26;;;;;;;9.27;5.20;;;13.50;99.90;;;;;;5095112;28;20452;-67
2023/09/22 03:06:52;;;;;;;5.18;2.65;;;13.60;99.90;;;;;;5095181;28;20039;-67
2023/09/22 03:09:18;;;;;;;9.38;5.10;;;13.60;99.90;;;;;;5090523;28;20027;-67
2023/09/22 03:11:43;;;;;;;7.03;4.32;;;13.60;99.90;;;;;;5094489;28;20704;-67
2023/09/22 03:14:09;;;;;;;5.85;4.38;;;13.60;99.90;;;;;;5088078;28;20024;-67
2023/09/22 03:16:35;;;;;;;4.70;4.10;;;13.60;99.90;;;;;;5090812;28;20032;-68
2023/09/22 03:19:01;;;;;;;9.50;5.72;;;13.60;99.90;;;;;;5089360;28;20035;-67
2023/09/22 03:21:26;;;;;;;5.75;4.13;;;13.60;99.90;;;;;;5092457;28;20025;-67
2023/09/22 03:23:54;;;;;;;6.13;4.18;;;13.60;99.90;;;;;;5093932;28;20099;-66
2023/09/22 03:26:21;;;;;;;4.82;3.25;;;13.60;99.90;;;;;;5093370;28;20480;-68
2023/09/22 03:28:48;;;;;;;7.50;4.53;;;13.60;99.90;;;;;;5089864;28;20051;-67
2023/09/22 03:31:13;;;;;;;5.72;3.85;;;13.60;99.90;;;;;;5093968;28;20070;-68
2023/09/22 03:33:43;;;;;;;7.03;4.15;;;13.60;99.90;;;;;;5092381;28;20033;-67
2023/09/22 03:36:10;;;;;;;8.05;3.88;;;13.60;99.90;;;;;;5091495;28;20067;-68
2023/09/22 03:38:37;;;;;;;3.85;3.05;;;13.60;99.90;;;;;;5090830;28;20036;-67
2023/09/22 03:41:06;;;;;;;4.80;2.38;;;13.70;99.90;;;;;;5087793;28;20090;-67
2023/09/22 03:43:33;;;;;;;5.88;3.72;;;13.60;99.90;;;;;;5083852;28;20089;-67
2023/09/22 03:45:58;;;;;;;7.15;3.35;;;13.60;99.90;;;;;;5083274;28;20051;-68
2023/09/22 03:48:24;;;;;;;4.28;3.17;;;13.60;99.90;;;;;;5096070;28;20023;-67
2023/09/22 03:50:50;;;;;;;4.25;2.60;;;13.60;99.90;;;;;;5093749;28;20050;-68
2023/09/22 03:53:15;;;;;;;6.55;2.67;;;13.60;99.90;;;;;;5093512;28;20094;-67
2023/09/22 03:55:41;;;;;;;8.18;4.32;;;13.60;99.90;;;;;;5091993;28;20425;-68
2023/09/22 03:58:07;;;;;;;5.75;3.08;;;13.60;99.90;;;;;;5089534;28;20024;-67
2023/09/22 04:00:32;;;;;;;7.68;4.13;;;13.60;99.90;;;;;;5087859;28;20046;-68
2023/09/22 04:02:59;;;;;;;7.63;3.10;;;13.50;99.90;;;;;;5088691;28;20035;-67
2023/09/22 04:05:25;;;;;;;4.75;3.35;;;13.50;99.90;;;;;;5090705;28;20043;-68
2023/09/22 04:07:53;;;;;;;6.28;3.47;;;13.50;99.90;;;;;;5099948;28;20020;-68
2023/09/22 04:10:20;;;;;;;8.63;4.60;;;13.50;99.90;;;;;;5094260;28;20632;-67
2023/09/22 04:12:45;;;;;;;4.47;4.18;;;13.50;99.90;;;;;;5098831;28;20490;-67
2023/09/22 04:15:11;;;;;;;5.00;3.17;;;13.50;99.90;;;;;;5105672;28;20023;-68
2023/09/22 04:17:38;;;;;;;7.72;4.38;;;13.50;99.90;;;;;;5098585;28;20028;-67
2023/09/22 04:20:07;;;;;;;9.70;3.70;;;13.50;99.90;;;;;;5104201;28;20028;-67
2023/09/22 04:22:34;;;;;;;9.38;3.50;;;13.50;99.90;;;;;;5097987;28;20028;-67
2023/09/22 04:25:01;;;;;;;3.75;3.33;;;13.50;99.90;;;;;;5103600;28;20024;-68
2023/09/22 04:27:34;;;;;;;3.38;2.78;;;13.50;99.90;;;;;;5107609;28;20027;-68
2023/09/22 04:30:03;;;;;;;10.30;3.83;;;13.50;99.90;;;;;;5096940;28;20039;-68
2023/09/22 04:32:33;;;;;;;6.15;3.70;;;13.50;99.90;;;;;;5107761;28;20024;-67
2023/09/22 04:35:02;;;;;;;3.67;2.78;;;13.40;99.90;;;;;;5103295;28;20034;-67
2023/09/22 04:37:28;;;;;;;5.35;4.30;;;13.40;99.90;;;;;;5099635;28;20036;-67
2023/09/22 04:39:54;;;;;;;7.07;4.70;;;13.30;99.90;;;;;;5110092;28;20484;-68
2023/09/22 04:42:20;;;;;;;7.30;4.07;;;13.30;99.90;;;;;;5091921;28;20028;-67
2023/09/22 04:44:46;;;;;;;5.80;2.78;;;13.30;99.90;;;;;;5105706;28;20016;-67
2023/09/22 04:47:12;;;;;;;6.70;3.65;;;13.30;99.90;;;;;;5101692;28;20051;-68
2023/09/22 04:49:37;;;;;;;5.78;3.08;;;13.40;99.90;;;;;;5108603;28;20401;-68
2023/09/22 04:52:03;;;;;;;4.68;3.78;;;13.30;99.90;;;;;;5096537;28;20467;-67
2023/09/22 04:54:29;;;;;;;4.85;3.92;;;13.30;99.90;;;;;;5107358;28;20091;-68
2023/09/22 04:56:55;;;;;;;4.63;3.97;;;13.30;99.90;;;;;;5103183;28;20061;-68
2023/09/22 04:59:20;;;;;;;8.10;4.50;;;13.30;99.90;;;;;;5100231;28;20032;-67
2023/09/22 05:01:46;;;;;;;8.50;3.72;;;13.30;99.90;;;;;;5109798;28;20024;-67
2023/09/22 05:04:11;;;;;;;21.38;11.80;;;13.20;99.90;;;;;;5107881;28;20020;-67
2023/09/22 05:06:37;;;;;;;51.60;25.20;;;13.20;99.90;;;;;;5098119;28;20040;-67
2023/09/22 05:09:03;;;;;;;49.83;25.50;;;13.20;99.90;;;;;;5097682;28;20028;-68
2023/09/22 05:11:29;;;;;;;51.63;26.15;;;13.20;99.90;;;;;;5102598;28;20071;-67
2023/09/22 05:13:54;;;;;;;53.28;25.92;;;13.10;99.90;;;;;;5107319;28;20051;-67
2023/09/22 05:16:21;;;;;;;50.65;25.98;;;13.10;99.90;;;;;;5108502;28;20020;-68
2023/09/22 05:18:46;;;;;;;54.03;26.92;;;13.20;99.90;;;;;;5103285;28;20031;-67
2023/09/22 05:21:12;;;;;;;49.92;25.98;;;13.10;99.90;;;;;;5105479;28;20036;-67
2023/09/22 05:23:38;;;;;;;48.50;25.88;;;13.10;99.90;;;;;;5112983;28;20064;-68
2023/09/22 05:26:08;;;;;;;52.80;26.42;;;13.10;99.90;;;;;;5100519;28;20032;-67
2023/09/22 05:28:34;;;;;;;49.30;26.30;;;13.10;99.90;;;;;;5110674;28;20036;-68
2023/09/22 05:31:00;;;;;;;55.28;26.60;;;13.10;99.90;;;;;;5106939;28;20030;-68
2023/09/22 05:33:26;;;;;;;53.97;25.73;;;13.10;99.90;;;;;;5102893;28;20024;-67
2023/09/22 05:35:51;;;;;;;47.67;25.38;;;13.10;99.90;;;;;;5096404;28;20384;-67
2023/09/22 05:38:17;;;;;;;55.08;27.90;;;13.10;99.90;;;;;;5096995;28;20031;-67
2023/09/22 05:40:43;;;;;;;46.92;25.23;;;13.10;99.90;;;;;;5096808;28;20369;-68
2023/09/22 05:43:13;;;;;;;49.95;26.27;;;13.10;99.90;;;;;;5097032;28;20053;-67
2023/09/22 05:45:39;;;;;;;49.22;26.67;;;13.10;99.90;;;;;;5096821;28;20043;-68
2023/09/22 05:48:05;;;;;;;46.92;25.83;;;13.10;99.90;;;;;;5096983;28;20025;-68
2023/09/22 05:50:30;;;;;;;47.97;25.92;;;13.10;99.90;;;;;;5096331;28;20040;-66
2023/09/22 05:52:56;;;;;;;50.17;26.10;;;13.10;99.90;;;;;;5096724;28;20360;-67
2023/09/22 05:55:22;;;;;;;48.28;25.30;;;13.10;99.90;;;;;;5096543;28;20043;-66
2023/09/22 05:57:50;;;;;;;41.50;24.60;;;13.20;99.90;;;;;;5096754;28;20028;-67
2023/09/22 06:00:16;;;;;;;45.42;23.52;;;13.20;99.90;;;;;;5096836;28;20032;-67
2023/09/22 06:02:49;;;;;;;42.63;25.70;;;13.20;99.90;;;;;;5096709;28;20032;-67
2023/09/22 06:05:16;;;;;;;43.25;24.45;;;13.30;99.90;;;;;;5096127;28;20456;-67
2023/09/22 06:07:41;;;;;;;44.08;24.23;;;13.30;99.90;;;;;;5095881;28;20100;-68
2023/09/22 06:10:09;;;;;;;39.08;22.52;;;13.30;99.90;;;;;;5095500;28;20390;-68
2023/09/22 06:12:38;;;;;;;38.28;23.48;;;13.40;99.90;;;;;;5089689;28;20031;-68
2023/09/22 06:15:08;;;;;;;34.45;21.73;;;13.50;99.90;;;;;;5075804;28;20036;-68
2023/09/22 06:17:37;;;;;;;34.95;22.63;;;13.60;99.90;;;;;;5075538;28;20028;-67
2023/09/22 06:20:15;;;;;;;32.30;20.60;;;13.70;99.90;;;;;;5074432;28;20029;-67
2023/09/22 06:22:47;;;;;;;31.27;19.65;;;13.80;99.90;;;;;;5074559;28;20055;-67
2023/09/22 06:25:13;;;;;;;31.77;19.25;;;13.80;99.90;;;;;;5084727;28;20055;-67
2023/09/22 06:27:41;;;;;;;30.60;19.55;;;13.80;99.90;;;;;;5091250;28;20066;-67
2023/09/22 06:30:10;;;;;;;29.50;19.02;;;13.90;99.90;;;;;;5088043;28;20027;-68
2023/09/22 06:32:41;;;;;;;30.23;17.92;;;13.90;99.90;;;;;;5103463;28;20048;-67
2023/09/22 06:35:11;;;;;;;27.33;17.52;;;13.90;99.90;;;;;;5095312;28;20109;-68
2023/09/22 06:37:41;;;;;;;25.63;15.75;;;14.00;99.90;;;;;;5094706;28;20058;-67
2023/09/22 06:40:16;;;;;;;22.80;14.93;;;14.00;99.90;;;;;;5095110;28;20031;-67
2023/09/22 06:42:44;;;;;;;23.17;14.40;;;14.00;99.90;;;;;;5095456;28;20091;-68
2023/09/22 06:45:10;;;;;;;20.35;12.30;;;14.00;99.90;;;;;;5094932;28;20030;-68
2023/09/22 06:47:36;;;;;;;21.92;11.95;;;14.10;99.90;;;;;;5090628;28;20023;-67
2023/09/22 06:50:06;;;;;;;18.98;10.75;;;14.10;99.90;;;;;;5086292;28;20139;-66
2023/09/22 06:52:32;;;;;;;15.52;8.38;;;14.10;99.90;;;;;;5095510;28;20035;-67
2023/09/22 06:55:00;;;;;;;14.93;8.68;;;14.10;99.90;;;;;;5076617;28;20020;-66
2023/09/22 06:57:40;;;;;;;15.95;7.80;;;14.10;99.90;;;;;;5078124;28;20036;-67
2023/09/22 07:00:16;;;;;;;15.05;8.77;;;14.20;99.90;;;;;;5074615;28;20024;-67
2023/09/22 07:02:49;;;;;;;8.85;6.00;;;14.20;99.90;;;;;;5077302;28;20031;-67
2023/09/22 07:05:19;;;;;;;10.50;5.05;;;14.40;99.90;;;;;;5094570;28;20468;-67
2023/09/22 07:07:46;;;;;;;6.43;4.75;;;14.50;99.90;;;;;;5085469;28;20039;-67
2023/09/22 07:10:12;;;;;;;9.55;5.03;;;14.60;99.90;;;;;;5073907;28;20568;-67
2023/09/22 07:12:39;;;;;;;8.00;4.60;;;14.70;99.90;;;;;;5073122;28;20128;-67
2023/09/22 07:15:06;;;;;;;6.40;3.88;;;14.70;99.90;;;;;;5070277;28;20039;-68
2023/09/22 07:17:32;;;;;;;7.05;3.72;;;14.90;99.90;;;;;;5072983;28;20060;-68
2023/09/22 07:20:01;;;;;;;12.93;6.10;;;15.00;99.90;;;;;;5074134;28;20463;-68
2023/09/22 07:22:32;;;;;;;6.82;3.47;;;15.20;99.90;;;;;;5073007;28;20555;-68
2023/09/22 07:24:58;;;;;;;8.77;4.38;;;15.30;99.90;;;;;;5074499;28;20028;-68
2023/09/22 07:27:24;;;;;;;6.03;3.30;;;15.40;99.90;;;;;;5073016;28;20392;-66
2023/09/22 07:29:50;;;;;;;8.60;3.45;;;15.30;99.90;;;;;;5075070;28;20123;-66
2023/09/22 07:32:16;;;;;;;8.05;4.30;;;15.30;99.90;;;;;;5074960;28;20060;-67
2023/09/22 07:34:42;;;;;;;8.48;4.32;;;15.20;99.90;;;;;;5075109;28;20077;-66
2023/09/22 07:37:11;;;;;;;6.55;3.65;;;15.30;99.90;;;;;;5072828;28;20025;-66
2023/09/22 07:39:39;;;;;;;4.68;2.97;;;15.40;99.90;;;;;;5073201;28;20020;-67
2023/09/22 07:42:06;;;;;;;9.18;3.78;;;15.50;99.90;;;;;;5089265;28;20024;-66
2023/09/22 07:44:32;;;;;;;6.13;4.00;;;15.50;99.90;;;;;;5076745;28;20741;-67
2023/09/22 07:47:00;;;;;;;7.53;4.15;;;15.50;99.90;;;;;;5092259;28;20036;-67
2023/09/22 07:49:26;;;;;;;6.43;3.38;;;15.40;99.90;;;;;;5080773;28;20123;-67
2023/09/22 07:51:52;;;;;;;8.93;4.55;;;15.30;99.90;;;;;;5089186;28;20054;-67
2023/09/22 07:54:21;;;;;;;9.68;4.80;;;15.30;99.90;;;;;;5073326;28;20039;-67
2023/09/22 07:56:47;;;;;;;8.30;4.35;;;15.20;99.90;;;;;;5073685;28;20025;-67
2023/09/22 07:59:16;;;;;;;9.30;4.50;;;15.20;99.90;;;;;;5083597;28;20039;-67
2023/09/22 08:01:43;;;;;;;5.53;3.50;;;15.10;99.90;;;;;;5079628;28;20464;-67
2023/09/22 08:04:12;;;;;;;9.15;4.40;;;15.10;99.90;;;;;;5089918;28;20031;-67
2023/09/22 08:06:38;;;;;;;10.32;4.90;;;15.00;99.90;;;;;;5072562;28;20078;-67
2023/09/22 08:09:03;;;;;;;8.52;4.90;;;15.10;99.90;;;;;;5082536;28;20056;-67
2023/09/22 08:11:30;;;;;;;9.52;4.40;;;15.20;99.90;;;;;;5080592;28;20029;-67
2023/09/22 08:13:56;;;;;;;11.52;7.50;;;15.40;99.90;;;;;;5089631;28;20455;-67
2023/09/22 08:16:22;;;;;;;8.95;5.85;;;15.50;99.90;;;;;;5076959;28;20108;-67
2023/09/22 08:18:47;;;;;;;5.72;3.97;;;15.50;99.90;;;;;;5086892;28;20107;-66
2023/09/22 08:21:13;;;;;;;10.85;4.45;;;15.50;99.90;;;;;;5083622;28;20044;-67
2023/09/22 08:23:40;;;;;;;6.03;4.35;;;15.50;99.90;;;;;;5093383;28;20074;-67
2023/09/22 08:26:05;;;;;;;11.50;6.28;;;15.40;99.90;;;;;;5076324;28;20431;-67
2023/09/22 08:28:37;;;;;;;7.95;4.55;;;15.30;99.90;;;;;;5087914;28;20012;-67
2023/09/22 08:31:05;;;;;;;7.75;5.45;;;15.30;99.90;;;;;;5078206;28;20040;-67
2023/09/22 08:33:31;;;;;;;9.93;6.00;;;15.10;99.90;;;;;;5085592;28;20050;-67
2023/09/22 08:35:57;;;;;;;7.78;5.50;;;15.00;99.90;;;;;;5075228;28;20051;-67
2023/09/22 08:38:22;;;;;;;13.38;7.75;;;14.90;99.90;;;;;;5072925;28;20035;-67
2023/09/22 08:40:48;;;;;;;8.60;5.82;;;14.90;99.90;;;;;;5080064;28;20024;-68
2023/09/22 08:43:15;;;;;;;8.75;5.25;;;14.90;99.90;;;;;;5081927;28;20067;-67
2023/09/22 08:45:41;;;;;;;11.48;5.90;;;14.90;99.90;;;;;;5087526;28;20036;-67
2023/09/22 08:48:07;;;;;;;9.55;6.47;;;14.90;99.90;;;;;;5076167;28;20040;-67
2023/09/22 08:50:33;;;;;;;8.70;5.43;;;15.00;99.90;;;;;;5088599;28;20044;-67
2023/09/22 08:52:59;;;;;;;13.90;9.13;;;15.00;99.90;;;;;;5080806;28;20031;-67
2023/09/22 08:55:26;;;;;;;8.90;6.45;;;15.00;99.90;;;;;;5080502;28;20114;-67
2023/09/22 08:57:53;;;;;;;8.32;4.95;;;15.00;99.90;;;;;;5088488;28;20028;-67
2023/09/22 09:00:21;;;;;;;4.63;3.95;;;15.30;99.90;;;;;;5076278;28;20028;-67
2023/09/22 09:02:49;;;;;;;10.98;6.25;;;15.80;99.90;;;;;;5086078;28;20108;-67
2023/09/22 09:05:28;;;;;;;6.30;3.67;;;16.30;99.90;;;;;;5081588;28;20024;-68
2023/09/22 09:07:55;;;;;;;7.07;4.20;;;16.60;99.90;;;;;;5081253;28;20455;-67
2023/09/22 09:10:29;;;;;;;5.30;3.22;;;16.80;99.90;;;;;;5089340;28;20032;-67
2023/09/22 09:12:56;;;;;;;8.63;4.63;;;17.60;99.90;;;;;;5080899;28;20020;-67
2023/09/22 09:15:25;;;;;;;5.55;3.10;;;18.60;99.90;;;;;;5081308;28;20032;-67
2023/09/22 09:18:05;;;;;;;4.22;2.75;;;19.10;99.90;;;;;;5088678;28;20054;-68
2023/09/22 09:20:36;;;;;;;3.08;2.78;;;18.90;99.90;;;;;;5065037;28;20114;-67
2023/09/22 09:23:12;;;;;;;6.30;2.95;;;18.40;99.90;;;;;;5082486;28;20024;-67
2023/09/22 09:25:45;;;;;;;6.07;2.50;;;18.00;99.90;;;;;;5078790;28;20033;-67
2023/09/22 09:28:12;;;;;;;4.97;2.55;;;18.70;99.90;;;;;;5089070;28;20332;-67
2023/09/22 09:30:54;;;;;;;3.10;2.10;;;19.80;99.90;;;;;;5077693;28;20035;-68
2023/09/22 09:33:28;;;;;;;2.45;1.90;;;20.40;99.90;;;;;;5081281;28;20028;-68
2023/09/22 09:35:55;;;;;;;3.53;2.30;;;20.60;99.90;;;;;;5088230;28;20039;-67
2023/09/22 09:38:28;;;;;;;3.25;1.95;;;20.70;99.90;;;;;;5075552;28;20107;-67
2023/09/22 09:40:58;;;;;;;2.88;1.90;;;20.90;99.90;;;;;;5084411;28;20465;-67
2023/09/22 09:43:25;;;;;;;6.40;1.58;;;20.50;99.90;;;;;;5084023;28;20570;-68
2023/09/22 09:45:56;;;;;;;4.75;2.20;;;20.50;99.90;;;;;;5076832;28;20040;-67
2023/09/22 09:48:24;;;;;;;6.63;2.65;;;20.70;99.90;;;;;;5089375;28;20028;-67
2023/09/22 09:50:52;;;;;;;4.07;1.90;;;21.30;99.90;;;;;;5078933;28;20055;-67
2023/09/22 09:53:43;;;;;;;5.18;2.00;;;21.60;99.90;;;;;;5081329;28;20056;-67
2023/09/22 09:56:16;;;;;;;3.85;1.63;;;21.60;99.90;;;;;;5089047;28;20028;-67
2023/09/22 09:58:42;;;;;;;6.30;1.55;;;21.50;99.90;;;;;;5078709;28;20117;-67
2023/09/22 10:01:08;;;;;;;2.92;1.70;;;21.40;99.90;;;;;;5082751;28;20086;-67
2023/09/22 10:03:39;;;;;;;4.20;2.67;;;21.50;99.90;;;;;;5085618;28;20032;-68
2023/09/22 10:06:06;;;;;;;10.88;5.55;;;20.60;99.90;;;;;;5077392;28;20037;-67
2023/09/22 10:08:32;;;;;;;6.18;3.85;;;19.90;99.90;;;;;;5091251;28;20468;-67
2023/09/22 10:11:00;;;;;;;4.88;3.00;;;19.30;99.90;;;;;;5084370;28;20048;-67
2023/09/22 10:13:26;;;;;;;5.80;3.90;;;18.70;99.90;;;;;;5084022;28;20025;-66
2023/09/22 10:15:54;;;;;;;6.80;4.03;;;18.30;99.90;;;;;;5091819;28;20058;-67
2023/09/22 10:18:23;;;;;;;5.07;3.15;;;17.90;99.90;;;;;;5092797;28;20078;-67
2023/09/22 10:20:49;;;;;;;6.10;4.45;;;17.50;99.90;;;;;;5082540;28;20020;-67
2023/09/22 10:23:22;;;;;;;7.60;4.70;;;17.00;99.90;;;;;;5085159;28;20104;-67
2023/09/22 10:26:19;;;;;;;7.30;4.57;;;16.80;99.90;;;;;;5090951;28;20032;-67
2023/09/22 10:28:45;;;;;;;8.85;5.40;;;16.70;99.90;;;;;;5068794;28;20024;-68
2023/09/22 10:31:11;;;;;;;7.03;5.82;;;16.40;99.90;;;;;;5085413;28;20047;-67
2023/09/22 10:33:37;;;;;;;13.82;6.50;;;16.20;99.90;;;;;;5089130;28;20383;-67
2023/09/22 10:36:07;;;;;;;9.20;5.80;;;16.20;99.90;;;;;;5078802;28;20038;-68
2023/09/22 10:38:52;;;;;;;8.05;5.43;;;16.10;99.90;;;;;;5090642;28;20099;-68
2023/09/22 10:41:17;;;;;;;12.45;6.53;;;15.90;99.90;;;;;;5086277;28;20024;-68
2023/09/22 10:43:57;;;;;;;9.02;5.95;;;15.70;99.90;;;;;;5080563;28;20086;-68
2023/09/22 10:46:23;;;;;;;6.70;4.88;;;15.80;99.90;;;;;;5091631;28;20534;-68
2023/09/22 10:48:48;;;;;;;6.05;4.20;;;16.10;99.90;;;;;;5081466;28;20027;-67
2023/09/22 10:51:15;;;;;;;4.75;2.83;;;16.60;99.90;;;;;;5083908;28;20139;-68
2023/09/22 10:53:40;;;;;;;6.07;3.00;;;17.30;99.90;;;;;;5089088;28;20032;-68
2023/09/22 10:56:06;;;;;;;5.15;2.53;;;17.90;99.90;;;;;;5075695;28;20032;-68
2023/09/22 10:58:32;;;;;;;4.90;1.58;;;18.30;99.90;;;;;;5084497;28;20020;-67
2023/09/22 11:01:04;;;;;;;4.07;1.90;;;18.90;99.90;;;;;;5085827;28;20031;-67
2023/09/22 11:03:33;;;;;;;2.58;1.50;;;19.60;99.90;;;;;;5087508;28;20032;-67
2023/09/22 11:06:06;;;;;;;4.60;1.60;;;20.00;99.90;;;;;;5077863;28;20079;-67
2023/09/22 11:08:32;;;;;;;4.03;1.30;;;20.10;99.90;;;;;;5089917;28;20100;-67
2023/09/22 11:10:58;;;;;;;4.47;1.67;;;20.10;99.90;;;;;;5082960;28;20035;-67
2023/09/22 11:13:23;;;;;;;4.88;1.50;;;20.00;99.90;;;;;;5082627;28;20028;-67
2023/09/22 11:15:57;;;;;;;1.75;1.20;;;19.80;99.90;;;;;;5080452;28;20078;-67
2023/09/22 11:18:24;;;;;;;5.28;1.95;;;19.70;99.90;;;;;;5087197;28;20078;-67
2023/09/22 11:20:59;;;;;;;5.82;1.33;;;19.30;99.90;;;;;;5080246;28;20131;-67
2023/09/22 11:23:28;;;;;;;3.17;1.40;;;19.00;99.90;;;;;;5081322;28;20024;-67
2023/09/22 11:26:00;;;;;;;4.22;1.52;;;18.70;99.90;;;;;;5089851;28;20135;-67
2023/09/22 11:28:26;;;;;;;6.78;2.38;;;18.50;99.90;;;;;;5084277;28;20020;-67
2023/09/22 11:30:53;;;;;;;4.03;1.27;;;18.40;99.90;;;;;;5086281;28;20115;-67
2023/09/22 11:33:19;;;;;;;3.15;1.20;;;18.50;99.90;;;;;;5085098;28;20464;-67
2023/09/22 11:35:45;;;;;;;5.07;1.60;;;18.60;99.90;;;;;;5078776;28;20127;-67
2023/09/22 11:38:28;;;;;;;3.05;1.15;;;18.80;99.90;;;;;;5090560;28;20032;-68
2023/09/22 11:41:11;;;;;;;9.90;3.50;;;18.90;99.90;;;;;;5081447;28;20024;-67
2023/09/22 11:43:44;;;;;;;3.65;1.35;;;19.30;99.90;;;;;;5080092;28;20021;-67
2023/09/22 11:46:22;;;;;;;5.55;1.75;;;19.60;99.90;;;;;;5089777;28;20145;-67
2023/09/22 11:49:05;;;;;;;9.48;2.83;;;19.60;99.90;;;;;;5080358;28;20376;-67
2023/09/22 11:51:55;;;;;;;6.60;1.95;;;19.30;99.90;;;;;;5080921;28;20079;-68
2023/09/22 11:54:25;;;;;;;7.55;2.00;;;18.60;99.90;;;;;;5089918;28;20029;-68
2023/09/22 11:56:54;;;;;;;11.82;2.42;;;18.10;99.90;;;;;;5080606;28;20028;-68
2023/09/22 11:59:21;;;;;;;11.45;3.05;;;17.60;99.90;;;;;;5082287;28;20035;-68
2023/09/22 12:01:48;;;;;;;11.98;2.55;;;17.40;99.90;;;;;;5088505;28;20089;-68
2023/09/22 12:04:14;;;;;;;9.10;3.03;;;17.40;99.90;;;;;;5075644;28;20052;-68
2023/09/22 12:06:40;;;;;;;9.40;3.03;;;17.50;99.90;;;;;;5079154;28;20485;-67
2023/09/22 12:09:10;;;;;;;12.57;2.58;;;17.80;99.90;;;;;;5086912;28;20028;-67
2023/09/22 12:11:36;;;;;;;10.13;2.80;;;18.10;99.90;;;;;;5080493;28;20031;-67
2023/09/22 12:14:04;;;;;;;8.13;2.50;;;18.40;99.90;;;;;;5076136;28;20028;-67
2023/09/22 12:16:30;;;;;;;14.07;3.40;;;18.50;99.90;;;;;;5093031;28;20016;-67
2023/09/22 12:18:56;;;;;;;8.68;2.42;;;18.50;99.90;;;;;;5085191;28;20027;-67
2023/09/22 12:21:22;;;;;;;9.27;3.17;;;18.60;99.90;;;;;;5073403;28;20063;-68
2023/09/22 12:23:48;;;;;;;7.43;3.40;;;18.80;99.90;;;;;;5085244;28;20712;-66
2023/09/22 12:26:13;;;;;;;5.05;2.08;;;19.00;99.90;;;;;;5072217;28;20127;-67
2023/09/22 12:28:42;;;;;;;7.05;2.25;;;19.50;99.90;;;;;;5076577;28;20016;-67
2023/09/22 12:31:09;;;;;;;8.43;2.67;;;20.00;99.90;;;;;;5083635;28;20050;-67
2023/09/22 12:33:35;;;;;;;7.55;2.25;;;20.40;99.90;;;;;;5070996;28;20127;-68
2023/09/22 12:36:01;;;;;;;5.47;2.33;;;20.60;99.90;;;;;;5089479;28;20050;-67
2023/09/22 12:38:26;;;;;;;5.70;2.35;;;20.60;99.90;;;;;;5079950;28;20439;-67
2023/09/22 12:40:52;;;;;;;7.85;2.30;;;20.50;99.90;;;;;;5079745;28;20066;-67
2023/09/22 12:43:18;;;;;;;6.30;2.40;;;20.10;99.90;;;;;;5081243;28;20032;-67
2023/09/22 12:45:44;;;;;;;9.75;2.25;;;19.80;99.90;;;;;;5087190;28;20127;-68